createdAt,value
2018-05-10T00:01:39.590Z,75.90
2018-05-10T00:04:13.155Z,75.60
2018-05-10T00:06:46.536Z,75.60
2018-05-10T00:09:19.835Z,75.50
2018-05-10T00:11:52.413Z,75.50
2018-05-10T00:14:25.746Z,76.20
2018-05-10T00:16:59.142Z,75.20
2018-05-10T00:19:31.706Z,75.20
2018-05-10T00:22:05.001Z,75.10
2018-05-10T00:24:38.328Z,75.00
2018-05-10T00:27:11.063Z,75.00
2018-05-10T00:29:44.192Z,74.90
2018-05-10T00:32:17.609Z,75.00
2018-05-10T00:34:50.225Z,75.00
2018-05-10T00:37:22.987Z,75.10
2018-05-10T00:39:55.324Z,75.00
2018-05-10T00:42:28.727Z,75.00
2018-05-10T00:45:01.483Z,75.00
2018-05-10T00:47:34.009Z,75.00
2018-05-10T00:50:07.301Z,75.00
2018-05-10T00:52:39.788Z,74.90
2018-05-10T00:55:12.475Z,74.90
2018-05-10T00:57:45.248Z,75.00
2018-05-10T01:00:17.865Z,74.60
2018-05-10T01:02:51.339Z,74.50
2018-05-10T01:05:24.141Z,74.50
2018-05-10T01:07:57.065Z,74.50
2018-05-10T01:10:30.752Z,74.10
2018-05-10T01:13:03.441Z,74.00
2018-05-10T01:15:36.522Z,73.40
2018-05-10T01:18:09.399Z,73.40
2018-05-10T01:20:41.878Z,73.40
2018-05-10T01:23:15.176Z,73.60
2018-05-10T01:25:47.948Z,73.00
2018-05-10T01:28:21.933Z,72.70
2018-05-10T01:30:54.450Z,72.70
2018-05-10T01:33:26.973Z,73.20
2018-05-10T01:36:17.108Z,72.30
2018-05-10T01:38:51.111Z,72.30
2018-05-10T01:41:25.238Z,72.30
2018-05-10T01:43:58.735Z,72.30
2018-05-10T01:46:32.325Z,72.30
2018-05-10T01:49:04.995Z,72.20
2018-05-10T01:51:38.287Z,72.20
2018-05-10T01:54:12.111Z,72.10
2018-05-10T01:56:45.238Z,72.10
2018-05-10T01:59:18.203Z,72.60
2018-05-10T02:01:52.287Z,72.70
2018-05-10T02:04:25.270Z,72.60
2018-05-10T02:06:58.753Z,72.60
2018-05-10T02:09:31.439Z,73.40
2018-05-10T02:12:04.766Z,72.80
2018-05-10T02:14:38.055Z,72.60
2018-05-10T02:17:10.530Z,72.70
2018-05-10T02:19:43.763Z,72.80
2018-05-10T02:22:16.775Z,72.90
2018-05-10T02:24:50.940Z,72.60
2018-05-10T02:27:23.499Z,72.60
2018-05-10T02:29:55.972Z,72.70
2018-05-10T02:32:29.415Z,73.00
2018-05-10T02:35:02.080Z,73.10
2018-05-10T02:37:36.439Z,73.20
2018-05-10T02:40:09.749Z,73.20
2018-05-10T02:42:43.133Z,73.40
2018-05-10T02:45:15.563Z,73.30
2018-05-10T02:47:48.098Z,73.60
2018-05-10T02:50:21.518Z,73.60
2018-05-10T02:52:54.669Z,73.80
2018-05-10T02:55:27.285Z,73.80
2018-05-10T02:57:59.873Z,73.70
2018-05-10T03:00:32.349Z,73.80
2018-05-10T03:03:04.934Z,73.90
2018-05-10T03:05:37.414Z,73.90
2018-05-10T03:08:10.018Z,74.00
2018-05-10T03:10:43.351Z,73.90
2018-05-10T03:13:16.799Z,74.50
2018-05-10T03:15:49.602Z,74.50
2018-05-10T03:18:22.139Z,74.60
2018-05-10T03:20:54.653Z,74.50
2018-05-10T03:23:28.054Z,74.60
2018-05-10T03:26:00.970Z,74.60
2018-05-10T03:28:34.248Z,74.80
2018-05-10T03:31:07.177Z,74.90
2018-05-10T03:33:39.582Z,75.00
2018-05-10T03:36:12.075Z,75.20
2018-05-10T03:38:45.507Z,75.10
2018-05-10T03:41:18.011Z,75.10
2018-05-10T03:43:52.225Z,75.40
2018-05-10T03:46:24.989Z,75.30
2018-05-10T03:48:58.404Z,75.30
2018-05-10T03:51:31.665Z,75.40
2018-05-10T03:54:04.320Z,75.60
2018-05-10T03:56:36.776Z,75.50
2018-05-10T03:59:09.919Z,75.90
2018-05-10T04:01:43.321Z,76.00
2018-05-10T04:04:34.408Z,75.90
2018-05-10T04:07:25.934Z,76.20
2018-05-10T04:10:18.118Z,76.20
2018-05-10T04:12:50.666Z,76.10
2018-05-10T04:15:24.658Z,76.60
2018-05-10T04:17:58.715Z,76.60
2018-05-10T04:20:31.420Z,76.60
2018-05-10T04:23:04.198Z,76.60
2018-05-10T04:25:36.879Z,76.70
2018-05-10T04:28:09.467Z,76.40
2018-05-10T04:30:42.123Z,76.30
2018-05-10T04:33:15.378Z,75.70
2018-05-10T04:35:48.187Z,75.70
2018-05-10T04:38:21.564Z,75.40
2018-05-10T04:40:54.415Z,75.00
2018-05-10T04:43:27.770Z,74.40
2018-05-10T04:46:01.138Z,74.10
2018-05-10T04:48:33.832Z,74.10
2018-05-10T04:51:07.237Z,73.80
2018-05-10T04:53:40.653Z,73.70
2018-05-10T04:56:13.827Z,73.30
2018-05-10T04:58:46.527Z,73.10
2018-05-10T05:01:19.973Z,73.10
2018-05-10T05:03:53.197Z,72.90
2018-05-10T05:06:25.741Z,72.80
2018-05-10T05:08:58.256Z,72.70
2018-05-10T05:11:31.507Z,72.60
2018-05-10T05:14:03.994Z,72.40
2018-05-10T05:16:37.361Z,72.30
2018-05-10T05:19:10.336Z,71.90
2018-05-10T05:21:43.637Z,71.70
2018-05-10T05:24:17.016Z,70.20
2018-05-10T05:26:50.460Z,69.70
2018-05-10T05:29:23.197Z,66.50
2018-05-10T05:31:55.744Z,64.20
2018-05-10T05:34:28.463Z,60.90
2018-05-10T05:37:01.097Z,57.90
2018-05-10T05:39:33.710Z,55.80
2018-05-10T05:42:06.837Z,51.60
2018-05-10T05:44:39.885Z,51.60
2018-05-10T05:47:12.619Z,51.00
2018-05-10T05:49:45.396Z,50.00
2018-05-10T05:52:17.908Z,48.40
2018-05-10T05:54:50.452Z,47.00
2018-05-10T05:57:23.685Z,45.90
2018-05-10T05:59:57.843Z,43.50
2018-05-10T06:02:31.205Z,42.90
2018-05-10T06:05:04.858Z,42.00
2018-05-10T06:07:37.323Z,42.00
2018-05-10T06:10:09.799Z,41.80
2018-05-10T06:12:42.251Z,41.30
2018-05-10T06:15:14.979Z,40.70
2018-05-10T06:17:49.000Z,38.70
2018-05-10T06:20:21.806Z,38.70
2018-05-10T06:22:54.248Z,39.10
2018-05-10T06:25:26.669Z,38.60
2018-05-10T06:28:00.727Z,37.20
2018-05-10T06:30:34.225Z,37.10
2018-05-10T06:33:07.340Z,36.70
2018-05-10T06:35:39.783Z,36.70
2018-05-10T06:38:12.279Z,36.40
2018-05-10T06:40:46.298Z,35.50
2018-05-10T06:43:19.861Z,35.50
2018-05-10T06:45:53.384Z,36.00
2018-05-10T06:48:26.787Z,35.70
2018-05-10T06:51:00.140Z,35.60
2018-05-10T06:53:32.721Z,35.50
2018-05-10T06:56:05.437Z,35.80
2018-05-10T06:58:39.503Z,35.20
2018-05-10T07:01:13.055Z,35.10
2018-05-10T07:03:45.903Z,36.40
2018-05-10T07:06:18.578Z,37.80
2018-05-10T07:08:52.715Z,41.40
2018-05-10T07:11:25.491Z,41.10
2018-05-10T07:14:05.838Z,42.10
2018-05-10T07:16:38.472Z,40.90
2018-05-10T07:19:12.620Z,39.30
2018-05-10T07:21:46.666Z,38.20
2018-05-10T07:24:19.982Z,37.30
2018-05-10T07:26:53.317Z,37.20
2018-05-10T07:29:26.037Z,37.10
2018-05-10T07:31:58.661Z,36.90
2018-05-10T07:34:32.729Z,36.90
2018-05-10T07:37:05.136Z,35.20
2018-05-10T07:39:37.598Z,36.10
2018-05-10T07:42:11.214Z,34.70
2018-05-10T07:44:44.273Z,35.30
2018-05-10T07:47:17.411Z,35.30
2018-05-10T07:49:49.704Z,35.00
2018-05-10T07:52:22.447Z,35.40
2018-05-10T07:54:56.588Z,36.10
2018-05-10T07:57:30.124Z,36.80
2018-05-10T08:00:02.926Z,36.80
2018-05-10T08:02:35.459Z,37.50
2018-05-10T08:05:08.250Z,37.60
2018-05-10T08:07:40.967Z,37.30
2018-05-10T08:10:13.379Z,37.40
2018-05-10T08:12:46.056Z,36.70
2018-05-10T08:15:18.565Z,36.70
2018-05-10T08:17:50.932Z,35.80
2018-05-10T08:20:24.344Z,37.30
2018-05-10T08:22:57.067Z,35.70
2018-05-10T08:25:30.284Z,36.60
2018-05-10T08:28:04.323Z,37.20
2018-05-10T08:30:37.009Z,37.10
2018-05-10T08:33:09.381Z,38.70
2018-05-10T08:35:41.841Z,40.40
2018-05-10T08:38:14.317Z,42.40
2018-05-10T08:40:46.757Z,43.10
2018-05-10T08:43:20.069Z,44.00
2018-05-10T08:45:52.453Z,42.80
2018-05-10T08:48:26.645Z,41.50
2018-05-10T08:51:00.258Z,41.50
2018-05-10T08:53:32.734Z,41.00
2018-05-10T08:56:05.269Z,41.20
2018-05-10T08:58:38.634Z,39.30
2018-05-10T09:01:11.311Z,39.20
2018-05-10T09:03:43.678Z,38.30
2018-05-10T09:06:16.942Z,37.60
2018-05-10T09:08:49.601Z,37.50
2018-05-10T09:11:21.989Z,37.20
2018-05-10T09:13:56.009Z,36.00
2018-05-10T09:16:28.661Z,35.90
2018-05-10T09:19:01.155Z,35.90
2018-05-10T09:21:33.562Z,35.50
2018-05-10T09:24:08.918Z,34.70
2018-05-10T09:26:42.660Z,35.60
2018-05-10T09:29:15.288Z,36.50
2018-05-10T09:31:48.485Z,35.80
2018-05-10T09:34:21.003Z,36.20
2018-05-10T09:36:56.199Z,36.10
2018-05-10T09:39:28.932Z,35.60
2018-05-10T09:42:02.385Z,36.50
2018-05-10T09:44:35.607Z,36.00
2018-05-10T09:47:08.184Z,35.30
2018-05-10T09:49:40.709Z,34.60
2018-05-10T09:52:13.920Z,35.10
2018-05-10T09:54:46.338Z,34.60
2018-05-10T09:57:19.707Z,34.50
2018-05-10T09:59:52.954Z,33.90
2018-05-10T10:02:25.606Z,33.90
2018-05-10T10:04:58.151Z,34.60
2018-05-10T10:07:41.341Z,34.30
2018-05-10T10:10:14.407Z,33.70
2018-05-10T10:12:46.825Z,35.20
2018-05-10T10:15:19.525Z,33.40
2018-05-10T10:17:52.037Z,34.00
2018-05-10T10:20:24.626Z,33.40
2018-05-10T10:22:57.080Z,33.70
2018-05-10T10:25:29.536Z,33.50
2018-05-10T10:31:11.226Z,35.50
2018-05-10T10:33:43.748Z,35.40
2018-05-10T10:36:16.538Z,34.80
2018-05-10T10:38:49.661Z,35.50
2018-05-10T10:41:23.356Z,36.20
2018-05-10T10:43:55.885Z,36.10
2018-05-10T10:46:28.433Z,36.60
2018-05-10T10:49:01.871Z,36.70
2018-05-10T10:51:34.330Z,36.40
2018-05-10T10:54:07.609Z,36.50
2018-05-10T10:56:41.769Z,37.90
2018-05-10T10:59:15.307Z,38.70
2018-05-10T11:01:47.983Z,38.60
2018-05-10T11:04:21.331Z,39.80
2018-05-10T11:06:54.492Z,40.50
2018-05-10T11:09:27.038Z,40.50
2018-05-10T11:11:59.471Z,40.40
2018-05-10T11:14:32.958Z,40.90
2018-05-10T11:17:06.262Z,40.30
2018-05-10T11:19:38.893Z,40.20
2018-05-10T11:22:11.765Z,40.50
2018-05-10T11:24:44.333Z,41.50
2018-05-10T11:27:17.634Z,40.80
2018-05-10T11:29:51.550Z,42.00
2018-05-10T11:32:24.187Z,41.90
2018-05-10T11:34:56.580Z,41.50
2018-05-10T11:37:29.226Z,41.70
2018-05-10T11:40:01.742Z,42.20
2018-05-10T11:42:35.953Z,42.00
2018-05-10T11:45:08.624Z,42.00
2018-05-10T11:47:41.270Z,41.90
2018-05-10T11:50:15.366Z,42.50
2018-05-10T11:52:48.236Z,42.50
2018-05-10T11:55:20.592Z,42.10
2018-05-10T11:57:53.865Z,41.50
2018-05-10T12:00:26.509Z,41.40
2018-05-10T12:02:59.062Z,42.50
2018-05-10T12:05:32.356Z,43.90
2018-05-10T12:08:06.509Z,45.00
2018-05-10T12:10:39.132Z,44.90
2018-05-10T12:13:11.629Z,44.40
2018-05-10T12:15:44.986Z,44.20
2018-05-10T12:18:17.321Z,44.30
2018-05-10T12:20:50.695Z,44.50
2018-05-10T12:23:23.150Z,44.30
2018-05-10T12:25:55.527Z,44.10
2018-05-10T12:28:29.592Z,45.60
2018-05-10T12:31:02.521Z,45.60
2018-05-10T12:33:35.709Z,46.70
2018-05-10T12:36:08.236Z,46.70
2018-05-10T12:38:40.870Z,46.50
2018-05-10T12:41:14.293Z,46.50
2018-05-10T12:43:47.731Z,46.90
2018-05-10T12:46:20.549Z,46.40
2018-05-10T12:48:54.009Z,48.10
2018-05-10T12:51:26.715Z,47.40
2018-05-10T12:54:00.092Z,47.50
2018-05-10T12:56:33.031Z,47.40
2018-05-10T12:59:06.289Z,49.30
2018-05-10T13:01:38.997Z,49.30
2018-05-10T13:04:11.593Z,50.40
2018-05-10T13:06:44.132Z,53.90
2018-05-10T13:09:18.197Z,55.90
2018-05-10T13:11:50.937Z,55.30
2018-05-10T13:14:24.373Z,54.10
2018-05-10T13:16:57.694Z,52.50
2018-05-10T13:19:31.039Z,52.20
2018-05-10T13:22:04.390Z,52.00
2018-05-10T13:24:37.001Z,52.00
2018-05-10T13:27:10.214Z,51.40
2018-05-10T13:29:42.887Z,51.00
2018-05-10T13:32:16.176Z,51.60
2018-05-10T13:34:48.539Z,50.30
2018-05-10T13:37:21.764Z,48.90
2018-05-10T13:39:54.550Z,48.90
2018-05-10T13:42:27.439Z,48.90
2018-05-10T13:45:00.407Z,48.30
2018-05-10T13:47:33.046Z,48.30
2018-05-10T13:50:05.711Z,48.00
2018-05-10T13:52:38.330Z,48.30
2018-05-10T13:55:11.151Z,48.10
2018-05-10T13:57:44.389Z,47.90
2018-05-10T14:00:18.201Z,48.80
2018-05-10T14:02:50.943Z,48.10
2018-05-10T14:05:24.174Z,46.20
2018-05-10T14:07:57.218Z,46.20
2018-05-10T14:10:29.963Z,45.30
2018-05-10T14:13:02.772Z,45.80
2018-05-10T14:15:36.914Z,45.90
2018-05-10T14:18:09.575Z,45.80
2018-05-10T14:20:43.114Z,46.20
2018-05-10T14:23:16.369Z,46.00
2018-05-10T14:25:49.635Z,46.30
2018-05-10T14:28:23.619Z,47.20
2018-05-10T14:30:57.037Z,47.60
2018-05-10T14:33:30.436Z,47.60
2018-05-10T14:36:02.894Z,47.30
2018-05-10T14:38:36.225Z,47.60
2018-05-10T14:41:10.433Z,48.20
2018-05-10T14:43:43.663Z,48.70
2018-05-10T14:46:17.230Z,48.30
2018-05-10T14:48:49.748Z,48.30
2018-05-10T14:51:22.367Z,48.50
2018-05-10T14:53:56.343Z,48.30
2018-05-10T14:56:29.185Z,48.20
2018-05-10T14:59:01.669Z,47.50
2018-05-10T15:01:34.479Z,48.00
2018-05-10T15:04:07.083Z,47.80
2018-05-10T15:06:39.517Z,48.60
2018-05-10T15:09:12.137Z,49.00
2018-05-10T15:11:45.131Z,48.60
2018-05-10T15:14:18.318Z,48.20
2018-05-10T15:16:51.329Z,48.20
2018-05-10T15:19:24.737Z,48.80
2018-05-10T15:21:59.269Z,48.80
2018-05-10T15:24:32.151Z,48.30
2018-05-10T15:27:05.457Z,47.90
2018-05-10T15:29:38.067Z,47.90
2018-05-10T15:32:10.674Z,47.40
2018-05-10T15:34:44.312Z,47.40
2018-05-10T15:37:17.569Z,48.30
2018-05-10T15:39:49.998Z,48.60
2018-05-10T15:42:23.208Z,47.40
2018-05-10T15:44:55.839Z,47.30
2018-05-10T15:47:28.371Z,46.80
2018-05-10T15:50:02.539Z,48.50
2018-05-10T15:52:35.329Z,48.40
2018-05-10T15:55:08.593Z,48.20
2018-05-10T15:57:41.090Z,48.70
2018-05-10T16:00:14.384Z,48.90
2018-05-10T16:02:47.662Z,48.60
2018-05-10T16:05:20.285Z,49.10
2018-05-10T16:07:52.730Z,50.30
2018-05-10T16:10:26.799Z,53.70
2018-05-10T16:12:59.972Z,53.60
2018-05-10T16:15:32.378Z,53.70
2018-05-10T16:18:05.152Z,52.40
2018-05-10T16:20:38.258Z,52.90
2018-05-10T16:23:11.754Z,52.70
2018-05-10T16:25:44.333Z,53.10
2018-05-10T16:28:17.581Z,52.50
2018-05-10T16:30:50.104Z,53.70
2018-05-10T16:33:22.712Z,52.50
2018-05-10T16:35:55.127Z,52.50
2018-05-10T16:38:28.600Z,52.20
2018-05-10T16:41:02.608Z,52.10
2018-05-10T16:43:35.149Z,52.10
2018-05-10T16:46:08.431Z,52.50
2018-05-10T16:48:41.697Z,52.90
2018-05-10T16:51:14.329Z,52.80
2018-05-10T16:53:46.689Z,52.70
2018-05-10T16:56:19.254Z,53.30
2018-05-10T16:58:51.762Z,53.50
2018-05-10T17:01:24.126Z,53.20
2018-05-10T17:03:57.389Z,53.40
2018-05-10T17:06:29.832Z,53.30
2018-05-10T17:09:02.257Z,54.00
2018-05-10T17:11:35.616Z,54.10
2018-05-10T17:14:08.104Z,54.10
2018-05-10T17:16:40.584Z,54.20
2018-05-10T17:19:13.788Z,54.80
2018-05-10T17:21:46.609Z,54.70
2018-05-10T17:24:19.993Z,55.20
2018-05-10T17:26:52.680Z,55.20
2018-05-10T17:29:25.897Z,55.60
2018-05-10T17:31:59.456Z,56.00
2018-05-10T17:34:32.366Z,56.00
2018-05-10T17:37:05.778Z,57.10
2018-05-10T17:39:38.647Z,57.10
2018-05-10T17:42:12.036Z,58.10
2018-05-10T17:44:44.611Z,58.10
2018-05-10T17:47:17.236Z,58.40
2018-05-10T17:49:50.534Z,59.30
2018-05-10T17:52:24.032Z,58.70
2018-05-10T17:54:57.177Z,58.60
2018-05-10T17:57:30.495Z,58.50
2018-05-10T18:00:03.111Z,58.50
2018-05-10T18:02:35.632Z,58.90
2018-05-10T18:05:08.163Z,59.10
2018-05-10T18:07:41.527Z,59.40
2018-05-10T18:10:14.196Z,59.50
2018-05-10T18:12:47.517Z,59.60
2018-05-10T18:15:20.695Z,60.40
2018-05-10T18:17:54.169Z,60.70
2018-05-10T18:20:26.953Z,60.70
2018-05-10T18:22:59.373Z,60.70
2018-05-10T18:25:31.822Z,61.00
2018-05-10T18:28:05.329Z,61.30
2018-05-10T18:30:37.776Z,61.60
2018-05-10T18:33:11.901Z,62.30
2018-05-10T18:35:44.699Z,62.30
2018-05-10T18:38:17.758Z,62.40
2018-05-10T18:40:52.128Z,62.30
2018-05-10T18:43:26.155Z,62.70
2018-05-10T18:45:58.867Z,62.80
2018-05-10T18:48:32.294Z,62.70
2018-05-10T18:51:05.373Z,63.50
2018-05-10T18:53:39.725Z,64.50
2018-05-10T18:56:12.192Z,64.90
2018-05-10T18:58:46.170Z,65.30
2018-05-10T19:01:20.051Z,65.30
2018-05-10T19:03:52.820Z,65.20
2018-05-10T19:06:26.309Z,65.40
2018-05-10T19:09:00.427Z,65.70
2018-05-10T19:11:34.328Z,66.50
2018-05-10T19:14:09.227Z,67.20
2018-05-10T19:16:42.762Z,67.90
2018-05-10T19:19:16.619Z,69.20
2018-05-10T19:21:52.020Z,70.60
2018-05-10T19:24:26.427Z,72.60
2018-05-10T19:27:00.067Z,73.90
2018-05-10T19:29:35.732Z,75.80
2018-05-10T19:32:10.357Z,75.00
2018-05-10T19:34:44.790Z,75.40
2018-05-10T19:37:19.203Z,75.00
2018-05-10T19:39:54.562Z,74.70
2018-05-10T19:42:28.418Z,75.30
2018-05-10T19:45:03.134Z,75.00
2018-05-10T19:47:38.198Z,74.50
2018-05-10T19:50:12.347Z,74.50
2018-05-10T19:52:46.685Z,74.90
2018-05-10T19:55:21.211Z,75.50
2018-05-10T19:57:55.748Z,74.70
2018-05-10T20:00:29.940Z,74.40
2018-05-10T20:03:03.631Z,73.20
2018-05-10T20:05:36.211Z,73.20
2018-05-10T20:08:10.107Z,73.60
2018-05-10T20:10:43.161Z,74.00
2018-05-10T20:13:16.439Z,74.10
2018-05-10T20:15:48.906Z,74.30
2018-05-10T20:18:22.122Z,74.30
2018-05-10T20:20:55.536Z,75.30
2018-05-10T20:23:27.955Z,75.90
2018-05-10T20:26:01.328Z,76.10
2018-05-10T20:28:34.721Z,77.10
2018-05-10T20:31:07.165Z,76.90
2018-05-10T20:33:40.441Z,77.50
2018-05-10T20:36:13.015Z,77.70
2018-05-10T20:38:46.433Z,78.90
2018-05-10T20:41:19.681Z,78.90
2018-05-10T20:43:52.519Z,78.70
2018-05-10T20:46:25.929Z,78.70
2018-05-10T20:48:58.228Z,79.30
2018-05-10T20:51:30.771Z,80.40
2018-05-10T20:54:03.378Z,79.90
2018-05-10T20:56:35.971Z,80.60
2018-05-10T20:59:08.626Z,79.90
2018-05-10T21:01:41.953Z,80.80
2018-05-10T21:04:15.578Z,80.50
2018-05-10T21:06:49.062Z,79.80
2018-05-10T21:09:21.615Z,79.80
2018-05-10T21:11:54.889Z,80.50
2018-05-10T21:14:27.563Z,80.50
2018-05-10T21:16:59.980Z,80.10
2018-05-10T21:19:32.460Z,80.10
2018-05-10T21:22:04.906Z,80.10
2018-05-10T21:24:37.313Z,80.20
2018-05-10T21:27:09.763Z,80.40
2018-05-10T21:29:43.744Z,79.90
2018-05-10T21:32:16.642Z,79.90
2018-05-10T21:34:49.987Z,79.60
2018-05-10T21:37:22.541Z,79.60
2018-05-10T21:39:54.989Z,79.00
2018-05-10T21:42:27.556Z,78.80
2018-05-10T21:45:00.043Z,79.50
2018-05-10T21:47:33.262Z,79.10
2018-05-10T21:50:06.784Z,79.50
2018-05-10T21:52:40.063Z,80.00
2018-05-10T21:55:12.683Z,79.90
2018-05-10T21:57:45.146Z,79.70
2018-05-10T22:00:17.618Z,78.80
2018-05-10T22:02:50.201Z,79.20
2018-05-10T22:05:23.584Z,78.20
2018-05-10T22:07:56.347Z,78.10
2018-05-10T22:10:28.816Z,78.70
2018-05-10T22:13:01.513Z,78.20
2018-05-10T22:15:34.975Z,78.20
2018-05-10T22:18:07.664Z,78.10
2018-05-10T22:20:41.007Z,78.00
2018-05-10T22:23:13.667Z,78.00
2018-05-10T22:25:46.938Z,78.00
2018-05-10T22:28:19.435Z,78.20
2018-05-10T22:30:51.984Z,78.40
2018-05-10T22:33:24.609Z,77.60
2018-05-10T22:35:58.080Z,78.00
2018-05-10T22:38:30.872Z,78.00
2018-05-10T22:41:03.382Z,78.00
2018-05-10T22:43:36.731Z,78.40
2018-05-10T22:46:09.275Z,78.40
2018-05-10T22:48:41.758Z,77.90
2018-05-10T22:51:14.156Z,77.60
2018-05-10T22:53:46.726Z,77.70
2018-05-10T22:56:20.750Z,77.80
2018-05-10T22:58:54.314Z,78.20
2018-05-10T23:01:26.848Z,78.20
2018-05-10T23:03:59.276Z,78.70
2018-05-10T23:06:31.673Z,78.80
2018-05-10T23:09:04.214Z,78.80
2018-05-10T23:11:37.835Z,78.70
2018-05-10T23:14:12.034Z,79.40
2018-05-10T23:16:44.763Z,79.40
2018-05-10T23:19:17.300Z,79.70
2018-05-10T23:21:50.470Z,79.50
2018-05-10T23:24:23.380Z,79.50
2018-05-10T23:26:56.688Z,80.40
2018-05-10T23:29:29.779Z,80.30
2018-05-10T23:32:02.207Z,80.50
2018-05-10T23:34:34.863Z,80.30
2018-05-10T23:37:07.435Z,80.90
2018-05-10T23:39:39.816Z,81.30
2018-05-10T23:42:12.438Z,81.40
2018-05-10T23:44:45.831Z,81.60
2018-05-10T23:47:18.564Z,81.60
2018-05-10T23:49:51.818Z,81.90
2018-05-10T23:52:24.482Z,81.80
2018-05-10T23:54:57.806Z,81.70
2018-05-10T23:57:31.049Z,81.90
